Time;durP1;ratioP1;P1;durP2;ratioP2;P2;SDS_P1;SDS_P2;PMS_P1;PMS_P2;Temp;Humidity;BMP_temperature;BMP_pressure;BME280_temperature;BME280_humidity;BME280_pressure;Samples;Min_cycle;Max_cycle;Signal;HPM_P1;HPM_P2
2021/07/03 00:01:54;;;;;;;19.52;12.45;;;;;;;14.97;78.11;101435.81;5042892;28;20048;-71
2021/07/03 00:04:20;;;;;;;23.65;12.80;;;;;;;15.01;77.93;101439.69;5044631;28;20045;-71
2021/07/03 00:06:46;;;;;;;23.08;12.75;;;;;;;14.98;77.83;101440.06;5046993;28;20063;-71
2021/07/03 00:09:11;;;;;;;25.05;14.07;;;;;;;14.91;78.01;101439.91;5048785;28;20114;-71
2021/07/03 00:11:37;;;;;;;22.58;13.00;;;;;;;14.87;78.17;101438.63;5047938;28;20035;-71
2021/07/03 00:14:02;;;;;;;22.92;12.73;;;;;;;14.84;78.20;101438.13;5048224;28;20040;-71
2021/07/03 00:16:28;;;;;;;24.35;13.93;;;;;;;14.82;78.27;101430.47;5046394;28;20401;-71
2021/07/03 00:18:54;;;;;;;20.23;12.75;;;;;;;14.84;78.41;101436.31;5044459;28;20386;-70
2021/07/03 00:21:19;;;;;;;21.85;12.90;;;;;;;14.85;78.26;101439.78;5043187;28;20884;-70
2021/07/03 00:23:44;;;;;;;26.75;14.55;;;;;;;14.86;78.19;101436.16;5047231;28;20032;-71
2021/07/03 00:26:10;;;;;;;26.73;14.75;;;;;;;14.88;78.01;101439.41;5048119;28;20095;-71
2021/07/03 00:28:36;;;;;;;23.25;14.82;;;;;;;14.89;77.79;101443.69;5047127;28;20037;-71
2021/07/03 00:31:01;;;;;;;26.08;15.02;;;;;;;14.89;77.70;101441.88;5047194;28;20029;-71
2021/07/03 00:33:27;;;;;;;20.85;14.10;;;;;;;14.88;77.65;101442.03;5044029;28;20029;-71
2021/07/03 00:35:53;;;;;;;23.98;14.77;;;;;;;14.85;77.73;101442.38;5046807;28;20033;-71
2021/07/03 00:38:18;;;;;;;26.85;14.02;;;;;;;14.79;77.83;101447.28;5047606;28;20424;-71
2021/07/03 00:40:44;;;;;;;23.30;14.13;;;;;;;14.77;78.02;101449.25;5032419;28;20083;-71
2021/07/03 00:43:09;;;;;;;26.73;14.82;;;;;;;14.76;77.74;101449.41;5046963;28;20171;-71
2021/07/03 00:45:35;;;;;;;25.52;14.40;;;;;;;14.68;78.44;101444.22;5047603;28;20052;-71
2021/07/03 00:48:00;;;;;;;21.55;12.65;;;;;;;14.57;78.50;101446.19;5046243;28;20072;-71
2021/07/03 00:50:27;;;;;;;22.60;13.27;;;;;;;14.47;78.93;101444.75;5046579;28;20029;-71
2021/07/03 00:52:53;;;;;;;25.98;14.13;;;;;;;14.39;79.14;101441.16;5047040;28;20032;-71
2021/07/03 00:55:26;;;;;;;27.95;15.98;;;;;;;14.30;78.79;101430.91;5044176;28;20029;-71
2021/07/03 00:57:53;;;;;;;26.35;15.07;;;;;;;14.20;79.33;101426.66;5045940;28;20044;-71
2021/07/03 01:00:23;;;;;;;23.23;13.60;;;;;;;14.17;79.66;101429.59;5046355;28;20413;-71
2021/07/03 01:02:51;;;;;;;22.90;15.57;;;;;;;14.17;79.75;101426.19;5044473;28;20029;-71
2021/07/03 01:05:17;;;;;;;24.17;16.25;;;;;;;14.17;79.76;101431.41;5042288;28;20033;-71
2021/07/03 01:07:43;;;;;;;25.65;16.40;;;;;;;14.16;79.79;101441.00;5045710;28;20025;-71
2021/07/03 01:10:23;;;;;;;29.60;17.08;;;;;;;14.18;79.84;101440.84;5047693;28;20029;-71
2021/07/03 01:12:54;;;;;;;26.20;15.20;;;;;;;14.20;79.77;101439.72;5041724;28;20064;-71
2021/07/03 01:15:20;;;;;;;23.20;14.93;;;;;;;14.23;79.68;101443.78;5045643;28;20108;-71
2021/07/03 01:17:46;;;;;;;26.52;16.83;;;;;;;14.23;79.26;101435.94;5045067;28;20108;-71
2021/07/03 01:20:14;;;;;;;26.08;16.27;;;;;;;14.24;79.29;101436.75;5042784;28;20037;-71
2021/07/03 01:22:41;;;;;;;24.85;15.60;;;;;;;14.24;79.17;101440.19;5043096;28;20136;-71
2021/07/03 01:25:07;;;;;;;24.17;15.70;;;;;;;14.25;79.13;101443.63;5042215;28;20045;-71
2021/07/03 01:27:33;;;;;;;23.10;13.68;;;;;;;14.25;79.07;101447.03;5045728;28;20033;-71
2021/07/03 01:30:02;;;;;;;24.83;14.90;;;;;;;14.24;78.96;101442.81;5043981;28;20143;-71
2021/07/03 01:32:28;;;;;;;26.83;14.85;;;;;;;14.25;78.87;101446.22;5045171;28;20033;-71
2021/07/03 01:34:53;;;;;;;24.20;14.63;;;;;;;14.23;78.81;101442.97;5045838;28;20036;-71
2021/07/03 01:37:28;;;;;;;23.33;13.88;;;;;;;14.22;79.27;101447.34;5038896;28;20029;-71
2021/07/03 01:39:57;;;;;;;25.33;15.52;;;;;;;14.21;79.21;101443.94;5044770;28;20059;-71
2021/07/03 01:42:23;;;;;;;25.95;16.42;;;;;;;14.21;79.39;101445.75;5044853;28;20111;-71
2021/07/03 01:44:49;;;;;;;28.08;16.27;;;;;;;14.17;79.36;101442.63;5045543;28;20028;-71
2021/07/03 01:47:16;;;;;;;28.63;16.83;;;;;;;14.06;79.33;101434.34;5045347;28;20037;-71
2021/07/03 01:49:45;;;;;;;24.38;14.70;;;;;;;13.94;79.40;101429.44;5027413;28;20028;-71
2021/07/03 01:52:17;;;;;;;26.52;14.50;;;;;;;13.82;79.73;101436.78;5045019;28;20025;-71
2021/07/03 01:54:44;;;;;;;;;;;;;;;13.73;79.99;101436.91;5045457;28;20025;-71
2021/07/03 01:57:11;;;;;;;20.20;12.38;;;;;;;13.69;80.04;101439.03;5044466;28;19920;-71
2021/07/03 02:00:11;;;;;;;24.80;13.50;;;;;;;13.66;80.39;101435.94;5028840;28;20044;-71
2021/07/03 02:02:45;;;;;;;24.17;14.10;;;;;;;13.60;80.53;101440.81;5046207;28;20047;-71
2021/07/03 02:05:12;;;;;;;23.02;13.80;;;;;;;13.55;80.73;101432.66;5045896;28;20037;-71
2021/07/03 02:07:38;;;;;;;21.92;13.90;;;;;;;13.55;80.75;101437.06;5044368;28;20028;-71
2021/07/03 02:10:04;;;;;;;23.48;14.32;;;;;;;13.58;80.57;101434.13;5043978;28;20032;-71
2021/07/03 02:12:31;;;;;;;23.30;13.80;;;;;;;13.58;80.40;101429.75;5044008;28;20113;-71
2021/07/03 02:15:16;;;;;;;23.90;14.27;;;;;;;13.55;80.49;101442.28;5045556;28;20037;-71
2021/07/03 02:17:48;;;;;;;23.58;13.57;;;;;;;13.54;80.49;101438.84;5039212;28;20112;-71
2021/07/03 02:20:16;;;;;;;18.85;12.25;;;;;;;13.56;80.51;101442.13;5043860;28;20052;-71
2021/07/03 02:23:18;;;;;;;21.98;12.85;;;;;;;13.59;80.19;101439.19;5026344;28;20190;-71
2021/07/03 02:25:48;;;;;;;22.98;14.20;;;;;;;13.61;80.05;101441.63;5044094;28;20044;-71
2021/07/03 02:28:20;;;;;;;19.35;13.07;;;;;;;13.56;80.27;101443.88;5043676;28;20071;-71
2021/07/03 02:30:52;;;;;;;26.50;16.65;;;;;;;13.52;80.47;101443.38;5046897;28;20059;-71
2021/07/03 02:33:20;;;;;;;24.35;14.20;;;;;;;13.48;80.55;101444.69;5047989;28;20057;-71
2021/07/03 02:35:48;;;;;;;21.75;13.40;;;;;;;13.37;80.55;101443.22;5047071;28;20029;-72
2021/07/03 02:38:16;;;;;;;21.85;13.35;;;;;;;13.28;80.85;101440.69;5047961;28;20036;-72
2021/07/03 02:40:43;;;;;;;22.25;12.68;;;;;;;13.24;81.07;101434.97;5047022;28;20033;-71
2021/07/03 02:43:09;;;;;;;20.15;13.57;;;;;;;13.23;80.98;101430.75;5047588;28;20028;-70
2021/07/03 02:45:37;;;;;;;21.92;13.63;;;;;;;13.20;81.01;101431.91;5047557;28;20029;-71
2021/07/03 02:48:03;;;;;;;18.15;12.40;;;;;;;13.21;81.06;101430.09;5048237;28;20039;-71
2021/07/03 02:50:29;;;;;;;18.48;12.63;;;;;;;13.23;80.99;101422.94;5047133;28;20337;-71
2021/07/03 02:52:57;;;;;;;24.88;14.25;;;;;;;13.27;80.61;101426.06;5047126;28;20036;-71
2021/07/03 02:55:24;;;;;;;22.83;13.50;;;;;;;13.24;80.63;101421.97;5047446;28;20537;-71
2021/07/03 02:57:50;;;;;;;23.38;13.30;;;;;;;13.20;80.90;101424.09;5045087;28;20680;-70
2021/07/03 03:00:17;;;;;;;22.90;13.90;;;;;;;13.15;81.01;101420.31;5046165;28;20098;-71
2021/07/03 03:02:46;;;;;;;27.60;14.98;;;;;;;13.11;81.16;101413.78;5048508;28;20072;-71
2021/07/03 03:05:13;;;;;;;23.30;14.38;;;;;;;13.07;81.26;101415.06;5048434;28;20041;-70
2021/07/03 03:07:40;;;;;;;24.88;14.68;;;;;;;13.07;81.17;101412.47;5046286;28;20116;-70
2021/07/03 03:10:09;;;;;;;20.30;12.95;;;;;;;13.07;81.19;101415.88;5047048;28;20072;-70
2021/07/03 03:12:36;;;;;;;22.33;13.38;;;;;;;13.10;81.21;101410.38;5047519;28;20033;-71
2021/07/03 03:15:03;;;;;;;20.05;12.88;;;;;;;13.13;81.11;101411.81;5048083;28;20052;-70
2021/07/03 03:17:29;;;;;;;23.65;14.30;;;;;;;13.12;80.86;101408.41;5048049;28;20029;-70
2021/07/03 03:19:55;;;;;;;23.88;14.57;;;;;;;13.12;80.83;101415.41;5047384;28;20064;-71
2021/07/03 03:22:21;;;;;;;25.42;14.05;;;;;;;13.11;80.67;101408.56;5044917;28;20021;-70
2021/07/03 03:24:48;;;;;;;27.23;15.88;;;;;;;13.11;80.62;101400.75;5046863;28;20041;-71
2021/07/03 03:27:14;;;;;;;28.25;15.32;;;;;;;13.10;80.68;101396.53;5047430;28;20123;-71
2021/07/03 03:29:42;;;;;;;26.20;16.23;;;;;;;13.08;80.90;101396.69;5046567;28;20036;-71
2021/07/03 03:32:08;;;;;;;24.75;15.43;;;;;;;13.05;81.07;101392.63;5047519;28;20033;-71
2021/07/03 03:34:34;;;;;;;26.20;16.55;;;;;;;13.03;81.01;101393.75;5046117;28;20572;-71
2021/07/03 03:37:00;;;;;;;27.25;17.15;;;;;;;13.00;81.33;101387.06;5046307;28;20428;-71
2021/07/03 03:39:26;;;;;;;30.05;17.17;;;;;;;12.99;81.45;101392.44;5047681;28;20033;-71
2021/07/03 03:41:53;;;;;;;29.67;17.13;;;;;;;12.98;81.37;101383.81;5042986;28;20604;-71
2021/07/03 03:44:20;;;;;;;27.20;14.65;;;;;;;12.98;81.38;101380.41;5045739;28;20442;-70
2021/07/03 03:46:51;;;;;;;28.98;16.77;;;;;;;12.96;81.20;101380.56;5049046;28;20039;-70
2021/07/03 03:49:19;;;;;;;23.03;14.10;;;;;;;12.93;81.59;101383.47;5046313;28;20151;-70
2021/07/03 03:51:46;;;;;;;22.67;13.98;;;;;;;12.90;81.84;101377.75;5046601;28;20413;-70
2021/07/03 03:54:12;;;;;;;22.30;13.10;;;;;;;12.89;82.08;101376.94;5046294;28;20036;-71
2021/07/03 03:56:38;;;;;;;27.40;14.25;;;;;;;12.91;81.98;101379.41;5046929;28;20385;-71
2021/07/03 03:59:03;;;;;;;36.75;21.13;;;;;;;12.92;82.35;101376.63;5048700;28;20506;-71
2021/07/03 04:01:31;;;;;;;37.25;22.20;;;;;;;12.93;82.57;101380.84;5047337;28;20024;-71
2021/07/03 04:03:57;;;;;;;38.75;22.10;;;;;;;12.99;82.93;101382.81;5045263;28;20067;-71
2021/07/03 04:06:22;;;;;;;39.17;24.02;;;;;;;13.04;83.69;101387.56;5046787;28;20028;-71
2021/07/03 04:08:48;;;;;;;35.00;20.40;;;;;;;13.01;83.88;101387.88;5030076;28;20028;-71
2021/07/03 04:11:14;;;;;;;44.45;23.75;;;;;;;13.07;84.35;101387.25;5046452;28;20041;-71
2021/07/03 04:13:40;;;;;;;49.25;25.35;;;;;;;13.22;84.98;101388.28;5046147;28;20386;-71
2021/07/03 04:16:05;;;;;;;40.38;22.73;;;;;;;13.42;85.30;101399.25;5042798;28;20639;-71
2021/07/03 04:18:31;;;;;;;45.17;22.55;;;;;;;13.44;85.33;101386.88;5047776;28;20667;-70
2021/07/03 04:20:56;;;;;;;39.72;22.50;;;;;;;13.49;85.37;101385.59;5047463;28;20025;-72
2021/07/03 04:23:22;;;;;;;41.97;22.55;;;;;;;13.41;85.43;101387.22;5045059;28;20049;-72
2021/07/03 04:25:47;;;;;;;40.70;22.60;;;;;;;13.41;85.90;101383.78;5060986;28;20033;-71
2021/07/03 04:28:13;;;;;;;42.53;25.50;;;;;;;13.51;85.60;101381.84;5046388;28;20033;-72
2021/07/03 04:30:39;;;;;;;47.85;23.33;;;;;;;13.52;85.51;101377.44;5047393;28;20032;-72
2021/07/03 04:33:06;;;;;;;44.75;22.83;;;;;;;13.56;85.42;101379.59;5046097;28;20529;-72
2021/07/03 04:35:31;;;;;;;43.05;23.90;;;;;;;13.61;85.57;101376.47;5045858;28;20049;-72
2021/07/03 04:37:57;;;;;;;47.55;23.70;;;;;;;13.60;85.45;101374.88;5047867;28;20122;-72
2021/07/03 04:40:23;;;;;;;36.13;21.50;;;;;;;13.53;85.93;101382.50;5045890;28;20033;-72
2021/07/03 04:42:48;;;;;;;38.80;22.08;;;;;;;13.62;85.86;101378.94;5046521;28;20041;-72
2021/07/03 04:45:18;;;;;;;47.97;23.25;;;;;;;13.76;85.62;101387.88;5045033;28;20063;-72
2021/07/03 04:47:43;;;;;;;40.40;21.95;;;;;;;13.71;85.43;101391.97;5047169;28;20548;-72
2021/07/03 04:50:09;;;;;;;45.08;22.40;;;;;;;13.81;85.49;101387.41;5046722;28;20037;-71
2021/07/03 04:52:36;;;;;;;39.90;22.02;;;;;;;13.86;85.37;101379.09;5054629;28;20052;-72
2021/07/03 04:55:05;;;;;;;38.45;24.45;;;;;;;13.96;84.96;101375.34;5043480;28;20049;-72
2021/07/03 04:57:31;;;;;;;41.17;23.58;;;;;;;14.00;85.11;101378.44;5044435;28;20025;-72
2021/07/03 04:59:57;;;;;;;39.65;23.88;;;;;;;14.17;84.89;101384.47;5047163;28;20025;-72
2021/07/03 05:02:23;;;;;;;42.13;25.05;;;;;;;14.19;85.29;101380.69;5040818;28;20126;-72
2021/07/03 05:04:48;;;;;;;42.53;24.63;;;;;;;14.20;85.40;101384.09;5043332;28;20405;-71
2021/07/03 05:07:14;;;;;;;45.85;26.52;;;;;;;14.30;84.93;101384.75;5045660;28;20048;-71
2021/07/03 05:09:52;;;;;;;49.45;25.60;;;;;;;14.28;84.86;101376.28;5045655;28;20401;-71
2021/07/03 05:12:17;;;;;;;40.65;22.05;;;;;;;14.28;85.11;101378.91;5043812;28;20039;-71
2021/07/03 05:14:43;;;;;;;40.13;22.92;;;;;;;14.41;85.03;101383.59;5046046;28;20045;-70
2021/07/03 05:17:09;;;;;;;38.15;21.98;;;;;;;14.53;84.22;101382.25;5044552;28;20039;-72
2021/07/03 05:19:34;;;;;;;37.05;20.75;;;;;;;14.63;83.90;101382.09;5044829;28;20040;-71
2021/07/03 05:22:00;;;;;;;37.65;22.00;;;;;;;14.74;83.59;101389.53;5046558;28;20033;-70
2021/07/03 05:24:25;;;;;;;36.20;20.90;;;;;;;14.88;82.63;101390.66;5044393;28;20440;-70
2021/07/03 05:26:51;;;;;;;34.15;20.63;;;;;;;14.99;82.39;101382.44;5038476;28;20040;-70
2021/07/03 05:29:16;;;;;;;37.42;20.58;;;;;;;15.09;82.51;101386.63;5046721;28;20064;-70
2021/07/03 05:31:42;;;;;;;33.75;19.83;;;;;;;15.22;81.84;101378.22;5046798;28;20033;-70
2021/07/03 05:34:07;;;;;;;33.03;21.48;;;;;;;15.24;82.15;101384.91;5046180;28;20696;-70
2021/07/03 05:36:33;;;;;;;41.00;24.25;;;;;;;15.38;81.66;101384.16;5046231;28;20029;-70
2021/07/03 05:39:03;;;;;;;36.92;23.35;;;;;;;15.60;80.81;101375.69;5046554;28;20040;-70
2021/07/03 05:41:29;;;;;;;33.17;21.33;;;;;;;15.82;80.07;101371.44;5045069;28;20071;-69
2021/07/03 05:43:54;;;;;;;36.67;21.25;;;;;;;16.02;79.92;101377.00;5043850;28;20162;-70
2021/07/03 05:46:20;;;;;;;38.58;23.90;;;;;;;16.20;79.29;101374.03;5041806;28;20041;-70
2021/07/03 05:48:45;;;;;;;38.17;21.95;;;;;;;16.47;78.55;101364.78;5046141;28;20045;-70
2021/07/03 05:51:12;;;;;;;30.13;18.08;;;;;;;16.79;78.00;101370.63;5046050;28;20135;-70
2021/07/03 05:53:38;;;;;;;29.33;18.77;;;;;;;16.99;77.17;101368.25;5045966;28;20040;-70
2021/07/03 05:56:04;;;;;;;29.08;18.05;;;;;;;17.24;75.53;101366.09;5044508;28;20029;-69
2021/07/03 05:58:29;;;;;;;29.80;17.13;;;;;;;17.25;75.15;101365.09;5045913;28;20036;-70
2021/07/03 06:00:55;;;;;;;28.77;17.80;;;;;;;17.02;75.55;101365.25;5046340;28;20401;-70
2021/07/03 06:03:22;;;;;;;24.85;16.05;;;;;;;17.07;75.46;101361.09;5045511;28;20037;-70
2021/07/03 06:05:47;;;;;;;27.20;16.30;;;;;;;16.92;75.58;101369.00;5045748;28;20040;-71
2021/07/03 06:08:13;;;;;;;26.63;16.88;;;;;;;16.97;75.31;101365.00;5039736;28;20036;-71
2021/07/03 06:10:38;;;;;;;24.75;15.27;;;;;;;17.38;74.49;101372.28;5044820;28;20037;-72
2021/07/03 06:13:04;;;;;;;25.23;16.23;;;;;;;17.75;73.17;101360.72;5045825;28;20044;-71
2021/07/03 06:15:29;;;;;;;28.67;16.13;;;;;;;18.15;71.95;101358.41;5043775;28;20079;-70
2021/07/03 06:17:55;;;;;;;24.42;15.55;;;;;;;18.31;71.44;101359.09;5045848;28;20041;-70
2021/07/03 06:20:20;;;;;;;25.33;15.25;;;;;;;18.45;71.00;101352.91;5046358;28;20056;-70
2021/07/03 06:22:46;;;;;;;25.60;15.20;;;;;;;18.42;70.46;101343.63;5045240;28;20498;-70
2021/07/03 06:25:12;;;;;;;22.05;14.52;;;;;;;18.62;70.09;101342.88;5044366;28;20398;-71
2021/07/03 06:27:38;;;;;;;24.55;14.07;;;;;;;19.02;69.82;101345.66;5043366;28;20511;-71
2021/07/03 06:30:06;;;;;;;20.08;13.52;;;;;;;19.49;68.40;101338.66;5044703;28;20393;-71
2021/07/03 06:32:31;;;;;;;22.63;14.85;;;;;;;19.67;66.32;101345.16;5045855;28;20127;-69
2021/07/03 06:34:57;;;;;;;22.13;15.32;;;;;;;19.75;66.95;101339.69;5043013;28;20124;-70
2021/07/03 06:37:22;;;;;;;24.25;14.20;;;;;;;20.06;65.97;101346.13;5041861;28;20021;-71
2021/07/03 06:39:48;;;;;;;22.17;13.73;;;;;;;20.34;64.33;101336.16;5045873;28;20037;-72
2021/07/03 06:42:13;;;;;;;22.58;14.10;;;;;;;20.30;64.44;101347.28;5045805;28;20147;-70
2021/07/03 06:44:39;;;;;;;20.25;12.95;;;;;;;20.53;64.88;101342.34;5044422;28;20025;-72
2021/07/03 06:47:05;;;;;;;18.55;11.70;;;;;;;20.95;64.30;101348.06;5044881;28;20094;-72
2021/07/03 06:49:30;;;;;;;19.73;12.90;;;;;;;21.24;63.99;101348.47;5045121;28;20040;-71
2021/07/03 06:51:56;;;;;;;24.27;12.95;;;;;;;21.69;61.26;101350.19;5043311;28;20029;-72
2021/07/03 06:54:21;;;;;;;23.83;14.02;;;;;;;21.84;60.35;101345.38;5043215;28;20036;-70
2021/07/03 06:56:47;;;;;;;18.05;12.30;;;;;;;21.66;58.81;101337.41;5045936;28;20099;-71
2021/07/03 06:59:13;;;;;;;23.75;13.48;;;;;;;21.53;60.36;101341.81;5044248;28;20029;-72
2021/07/03 07:01:39;;;;;;;25.73;13.77;;;;;;;21.76;58.44;101345.66;5039935;28;20481;-72
2021/07/03 07:04:04;;;;;;;20.17;12.98;;;;;;;21.83;59.20;101346.41;5041379;28;20067;-72
2021/07/03 07:06:30;;;;;;;19.27;12.27;;;;;;;22.38;57.88;101336.91;5042456;28;20036;-72
2021/07/03 07:08:55;;;;;;;23.35;12.45;;;;;;;22.53;56.26;101337.34;5040919;28;20098;-72
2021/07/03 07:11:21;;;;;;;21.90;13.27;;;;;;;22.62;56.13;101330.75;5042352;28;20504;-72
2021/07/03 07:13:47;;;;;;;19.08;12.30;;;;;;;22.84;56.05;101335.53;5045102;28;20037;-71
2021/07/03 07:16:12;;;;;;;18.63;11.68;;;;;;;23.11;56.00;101320.09;5040719;28;20030;-72
2021/07/03 07:18:38;;;;;;;20.67;11.60;;;;;;;23.47;55.33;101328.88;5046516;28;20172;-71
2021/07/03 07:21:03;;;;;;;20.85;11.48;;;;;;;23.47;54.15;101320.94;5048794;28;20033;-72
2021/07/03 07:23:29;;;;;;;15.95;11.18;;;;;;;23.58;53.87;101330.72;5046418;28;20037;-72
2021/07/03 07:25:54;;;;;;;19.52;10.40;;;;;;;23.26;53.77;101324.94;5049067;28;20076;-72
2021/07/03 07:28:20;;;;;;;16.63;10.20;;;;;;;23.29;54.27;101327.94;5031699;28;20033;-72
2021/07/03 07:30:46;;;;;;;17.00;10.32;;;;;;;23.81;52.93;101327.31;5046274;28;20033;-72
2021/07/03 07:33:11;;;;;;;18.15;9.25;;;;;;;23.91;51.73;101324.09;5061874;22;20033;-72
2021/07/03 07:35:37;;;;;;;15.60;9.80;;;;;;;23.61;52.29;101317.03;5051546;28;20504;-73
2021/07/03 07:38:03;;;;;;;15.80;10.05;;;;;;;23.49;53.48;101314.41;5041132;28;20028;-73
2021/07/03 07:40:28;;;;;;;17.38;9.93;;;;;;;24.02;52.47;101311.88;5044549;28;20499;-73
2021/07/03 07:42:54;;;;;;;13.77;9.18;;;;;;;24.38;50.69;101320.53;5044894;28;20036;-74
2021/07/03 07:45:19;;;;;;;14.48;8.55;;;;;;;24.29;51.63;101328.84;5049844;28;20044;-74
2021/07/03 07:47:48;;;;;;;13.13;8.95;;;;;;;24.27;50.91;101314.22;5033843;28;20037;-73
2021/07/03 07:50:14;;;;;;;11.35;7.63;;;;;;;24.84;51.58;101313.44;5049559;28;20037;-74
2021/07/03 07:52:40;;;;;;;12.13;8.70;;;;;;;25.24;50.35;101313.34;5049904;28;20037;-74
2021/07/03 07:55:06;;;;;;;14.05;8.90;;;;;;;25.66;49.39;101306.78;5048576;28;20020;-74
2021/07/03 07:57:31;;;;;;;13.48;8.52;;;;;;;25.87;48.22;101305.19;5048769;28;20033;-73
2021/07/03 07:59:57;;;;;;;10.93;7.50;;;;;;;25.86;47.54;101297.47;5051256;28;20033;-73
2021/07/03 08:02:25;;;;;;;11.43;7.88;;;;;;;26.02;46.83;101305.41;5050952;28;20405;-74
2021/07/03 08:04:50;;;;;;;15.32;9.02;;;;;;;25.88;47.83;101301.50;5048131;28;20016;-74
2021/07/03 08:07:16;;;;;;;12.52;7.72;;;;;;;26.07;45.80;101301.22;5052019;28;20374;-74
2021/07/03 08:09:44;;;;;;;13.68;7.30;;;;;;;25.76;45.78;101298.16;5036132;28;20029;-73
2021/07/03 08:12:12;;;;;;;8.93;6.70;;;;;;;25.94;47.11;101289.13;5049478;28;20033;-73
2021/07/03 08:14:38;;;;;;;11.57;6.70;;;;;;;26.44;45.32;101285.41;5035213;28;20107;-73
2021/07/03 08:17:03;;;;;;;9.68;6.40;;;;;;;26.56;44.19;101279.94;5033713;28;20032;-74
2021/07/03 08:19:29;;;;;;;11.20;6.95;;;;;;;26.62;44.33;101286.97;5050639;28;20393;-74
2021/07/03 08:21:57;;;;;;;7.93;5.43;;;;;;;26.95;44.85;101282.44;5050530;28;20538;-73
2021/07/03 08:24:24;;;;;;;10.60;6.50;;;;;;;27.22;43.34;101282.38;5030777;28;20063;-74
2021/07/03 08:26:49;;;;;;;13.43;6.75;;;;;;;26.90;42.96;101282.38;5039227;28;20029;-74
2021/07/03 08:29:15;;;;;;;11.90;5.93;;;;;;;27.04;45.08;101278.25;5050479;28;20271;-74
2021/07/03 08:31:40;;;;;;;8.90;5.72;;;;;;;27.16;43.27;101278.88;5034128;28;20025;-74
2021/07/03 08:34:06;;;;;;;7.88;5.53;;;;;;;27.32;44.29;101277.16;5049643;28;20493;-74
2021/07/03 08:36:31;;;;;;;10.18;6.55;;;;;;;27.71;43.43;101270.72;5047775;28;20028;-75
2021/07/03 08:38:57;;;;;;;9.90;6.32;;;;;;;27.95;42.36;101279.91;5057238;28;20048;-76
2021/07/03 08:41:23;;;;;;;10.35;5.88;;;;;;;27.77;42.33;101273.13;5058615;28;20064;-75
2021/07/03 08:43:50;;;;;;;10.02;6.28;;;;;;;27.76;38.92;101276.03;5051416;28;20536;-74
2021/07/03 08:46:21;;;;;;;9.32;5.80;;;;;;;27.74;41.85;101270.19;5032721;28;20021;-75
2021/07/03 08:48:53;;;;;;;8.65;5.70;;;;;;;27.90;41.57;101263.88;5036385;28;20055;-75
2021/07/03 08:51:18;;;;;;;10.15;5.47;;;;;;;28.27;41.39;101267.44;5045731;28;20044;-75
2021/07/03 08:53:44;;;;;;;10.07;5.50;;;;;;;28.32;40.45;101267.47;5047727;28;20040;-76
2021/07/03 08:56:09;;;;;;;8.63;5.90;;;;;;;28.15;40.63;101263.16;5038424;28;20096;-76
2021/07/03 08:58:35;;;;;;;12.38;5.65;;;;;;;27.93;40.08;101260.72;5054527;28;20493;-75
2021/07/03 09:01:04;;;;;;;9.55;5.28;;;;;;;27.82;40.45;101259.03;5060550;28;20059;-76
2021/07/03 09:03:30;;;;;;;9.10;5.45;;;;;;;28.32;39.60;101254.91;5036624;28;20112;-76
2021/07/03 09:05:57;;;;;;;9.40;5.25;;;;;;;28.61;40.70;101257.09;5036050;28;20017;-76
2021/07/03 09:08:25;;;;;;;8.75;5.63;;;;;;;28.67;38.68;101258.72;5034423;28;20123;-75
2021/07/03 09:11:08;;;;;;;8.02;5.60;;;;;;;28.47;38.91;101250.69;5047737;28;20024;-75
2021/07/03 09:13:37;;;;;;;8.50;5.55;;;;;;;28.53;37.84;101247.78;5044378;28;20097;-76
2021/07/03 09:16:03;;;;;;;10.55;6.35;;;;;;;28.46;38.31;101241.91;5036053;28;20154;-73
2021/07/03 09:18:30;;;;;;;9.35;5.53;;;;;;;28.61;41.33;101248.31;5049788;28;20533;-74
2021/07/03 09:20:57;;;;;;;7.75;4.80;;;;;;;28.85;39.64;101245.91;5034976;28;20027;-75
2021/07/03 09:23:24;;;;;;;13.32;5.63;;;;;;;28.83;38.95;101246.19;5053645;28;20061;-75
2021/07/03 09:25:55;;;;;;;9.15;5.15;;;;;;;28.94;39.22;101244.31;5050501;28;20025;-76
2021/07/03 09:28:24;;;;;;;7.63;5.10;;;;;;;28.94;37.88;101252.31;5048118;28;20128;-74
2021/07/03 09:30:52;;;;;;;9.30;5.85;;;;;;;29.16;38.87;101243.22;5025349;28;20033;-76
2021/07/03 09:33:20;;;;;;;5.22;4.38;;;;;;;29.24;37.64;101240.81;5026674;28;20040;-76
2021/07/03 09:36:00;;;;;;;6.82;4.18;;;;;;;29.46;35.73;101240.50;5039129;28;20042;-76
2021/07/03 09:38:33;;;;;;;7.22;4.60;;;;;;;29.35;36.64;101252.28;5029187;28;20043;-76
2021/07/03 09:41:24;;;;;;;;;;;;;;;29.25;35.37;101242.44;5034566;28;20040;-77
2021/07/03 09:43:50;;;;;;;5.30;4.13;;;;;;;29.02;36.12;101249.09;5033046;28;19916;-75
2021/07/03 09:46:24;;;;;;;6.55;4.10;;;;;;;29.06;38.03;101244.03;5031163;28;20160;-76
2021/07/03 09:48:55;;;;;;;4.38;3.97;;;;;;;29.35;38.20;101252.28;5043855;28;20067;-75
2021/07/03 09:51:33;;;;;;;6.15;4.38;;;;;;;29.55;38.59;101248.72;5016035;28;20400;-76
2021/07/03 09:53:59;;;;;;;6.65;4.65;;;;;;;29.69;38.24;101241.72;5025854;28;20048;-76
2021/07/03 09:56:27;;;;;;;6.25;4.63;;;;;;;29.45;36.42;101238.88;5048210;28;20035;-77
2021/07/03 09:58:54;;;;;;;7.57;3.85;;;;;;;28.84;35.87;101249.63;5047931;28;20033;-77
2021/07/03 10:01:19;;;;;;;7.75;4.40;;;;;;;29.07;36.12;101233.06;5027532;28;20522;-76
2021/07/03 10:03:45;;;;;;;5.95;3.67;;;;;;;29.40;36.75;101240.75;5036028;28;20029;-76
2021/07/03 10:06:27;;;;;;;6.28;3.92;;;;;;;29.41;35.23;101234.38;5033712;28;20033;-75
2021/07/03 10:08:58;;;;;;;5.80;4.20;;;;;;;29.03;36.21;101236.56;5038806;28;20029;-79
2021/07/03 10:11:25;;;;;;;6.22;4.13;;;;;;;29.14;35.99;101235.50;5029525;28;20068;-76
2021/07/03 10:13:59;;;;;;;7.20;4.90;;;;;;;29.21;36.42;101237.88;5043203;28;20637;-75
2021/07/03 10:16:24;;;;;;;6.50;4.60;;;;;;;29.29;36.14;101229.31;5037383;28;20424;-75
2021/07/03 10:18:50;;;;;;;9.07;4.70;;;;;;;29.28;36.90;101225.84;5051830;28;20043;-76
2021/07/03 10:21:22;;;;;;;6.85;4.50;;;;;;;29.33;37.01;101229.56;5048307;28;20086;-76
2021/07/03 10:23:48;;;;;;;8.18;5.18;;;;;;;29.59;35.32;101224.94;5030272;28;20033;-76
2021/07/03 10:26:14;;;;;;;6.22;4.35;;;;;;;29.88;35.66;101215.22;5054716;28;20039;-76
2021/07/03 10:28:50;;;;;;;6.55;4.00;;;;;;;29.87;35.39;101215.47;5037451;28;20025;-76
2021/07/03 10:31:16;;;;;;;5.82;4.45;;;;;;;29.99;35.66;101213.28;5015031;28;20157;-76
2021/07/03 10:33:44;;;;;;;6.93;4.30;;;;;;;29.70;35.06;101216.63;5049178;28;20048;-76
2021/07/03 10:36:22;;;;;;;6.90;5.13;;;;;;;29.36;34.86;101210.34;5034523;28;20035;-75
2021/07/03 10:38:47;;;;;;;7.22;4.72;;;;;;;29.12;37.17;101201.03;5036035;28;20033;-76
2021/07/03 10:41:15;;;;;;;6.72;4.60;;;;;;;28.98;38.14;101201.88;5014919;28;20543;-76
2021/07/03 10:43:43;;;;;;;6.10;3.83;;;;;;;29.18;38.18;101193.03;5052473;28;20067;-76
2021/07/03 10:46:08;;;;;;;5.60;3.88;;;;;;;29.30;38.72;101201.56;5022574;28;20051;-76
2021/07/03 10:48:34;;;;;;;5.63;3.33;;;;;;;29.55;35.62;101202.53;5050544;28;20525;-76
2021/07/03 10:51:10;;;;;;;5.45;3.95;;;;;;;29.30;36.44;101196.22;5035224;28;20044;-76
2021/07/03 10:53:36;;;;;;;7.80;3.97;;;;;;;29.05;40.39;101197.84;5057345;28;20358;-76
2021/07/03 10:56:14;;;;;;;5.13;3.40;;;;;;;29.31;40.25;101192.47;5039306;28;20612;-76
2021/07/03 10:58:42;;;;;;;4.63;3.80;;;;;;;29.51;38.55;101195.03;5049666;28;20108;-76
2021/07/03 11:01:13;;;;;;;6.90;3.95;;;;;;;29.56;37.07;101191.56;5036278;28;20082;-77
2021/07/03 11:03:47;;;;;;;5.37;4.43;;;;;;;29.56;33.73;101196.91;5050927;28;20052;-76
2021/07/03 11:06:21;;;;;;;7.93;4.40;;;;;;;29.41;34.79;101188.97;5038841;28;20910;-75
2021/07/03 11:08:47;;;;;;;4.80;4.03;;;;;;;29.29;34.41;101183.91;5035036;28;20028;-76
2021/07/03 11:11:15;;;;;;;4.88;3.70;;;;;;;29.20;36.21;101188.25;5034176;28;20498;-76
2021/07/03 11:13:42;;;;;;;5.70;3.88;;;;;;;29.20;36.48;101188.25;5037151;28;20032;-76
2021/07/03 11:16:11;;;;;;;5.35;3.58;;;;;;;29.02;38.18;101187.72;5056672;28;20485;-76